sensor_id;sensor_type;location;lat;lon;timestamp;pressure;altitude;pressure_sealevel;temperature;humidity
74794;BME280;63320;50.768;6.724;2023-07-30T00:00:44;99690.44;;;17.37;91.42
74794;BME280;63320;50.768;6.724;2023-07-30T00:03:09;99688.00;;;17.24;90.84
74794;BME280;63320;50.768;6.724;2023-07-30T00:05:36;99689.69;;;17.04;90.58
74794;BME280;63320;50.768;6.724;2023-07-30T00:08:01;99697.25;;;17.08;90.76
74794;BME280;63320;50.768;6.724;2023-07-30T00:10:26;99692.66;;;17.31;90.46
74794;BME280;63320;50.768;6.724;2023-07-30T00:12:52;99695.44;;;17.30;90.20
74794;BME280;63320;50.768;6.724;2023-07-30T00:15:17;99686.00;;;17.37;90.98
74794;BME280;63320;50.768;6.724;2023-07-30T00:17:42;99699.09;;;17.29;90.99
74794;BME280;63320;50.768;6.724;2023-07-30T00:20:08;99698.09;;;17.30;89.72
74794;BME280;63320;50.768;6.724;2023-07-30T00:22:35;99696.44;;;17.29;90.28
74794;BME280;63320;50.768;6.724;2023-07-30T00:25:00;99689.75;;;17.34;89.59
74794;BME280;63320;50.768;6.724;2023-07-30T00:27:26;99694.75;;;17.28;90.14
74794;BME280;63320;50.768;6.724;2023-07-30T00:29:51;99693.25;;;17.14;90.92
74794;BME280;63320;50.768;6.724;2023-07-30T00:32:16;99696.75;;;17.15;90.63
74794;BME280;63320;50.768;6.724;2023-07-30T00:34:42;99697.44;;;16.96;89.54
74794;BME280;63320;50.768;6.724;2023-07-30T00:37:07;99697.72;;;17.14;91.01
74794;BME280;63320;50.768;6.724;2023-07-30T00:39:34;99701.06;;;17.16;90.69
74794;BME280;63320;50.768;6.724;2023-07-30T00:41:59;99701.69;;;17.19;90.50
74794;BME280;63320;50.768;6.724;2023-07-30T00:44:25;99705.16;;;16.99;90.72
74794;BME280;63320;50.768;6.724;2023-07-30T00:46:50;99698.41;;;16.95;91.17
74794;BME280;63320;50.768;6.724;2023-07-30T00:49:15;99702.16;;;16.92;91.32
74794;BME280;63320;50.768;6.724;2023-07-30T00:51:42;99702.34;;;17.00;92.03
74794;BME280;63320;50.768;6.724;2023-07-30T00:54:07;99710.63;;;16.86;91.67
74794;BME280;63320;50.768;6.724;2023-07-30T00:56:34;99702.09;;;16.71;92.52
74794;BME280;63320;50.768;6.724;2023-07-30T00:59:00;99709.53;;;16.89;92.23
74794;BME280;63320;50.768;6.724;2023-07-30T01:01:25;99711.00;;;16.81;92.21
74794;BME280;63320;50.768;6.724;2023-07-30T01:03:51;99710.44;;;16.55;91.17
74794;BME280;63320;50.768;6.724;2023-07-30T01:06:16;99722.09;;;16.32;92.51
74794;BME280;63320;50.768;6.724;2023-07-30T01:08:42;99721.22;;;16.20;92.65
74794;BME280;63320;50.768;6.724;2023-07-30T01:11:09;99716.03;;;16.30;91.44
74794;BME280;63320;50.768;6.724;2023-07-30T01:13:37;99721.34;;;16.30;91.16
74794;BME280;63320;50.768;6.724;2023-07-30T01:16:03;99725.66;;;16.53;89.57
74794;BME280;63320;50.768;6.724;2023-07-30T01:18:29;99730.22;;;16.51;90.00
74794;BME280;63320;50.768;6.724;2023-07-30T01:20:58;99733.72;;;16.63;87.66
74794;BME280;63320;50.768;6.724;2023-07-30T01:23:24;99733.22;;;16.69;86.47
74794;BME280;63320;50.768;6.724;2023-07-30T01:25:52;99734.66;;;16.85;84.24
74794;BME280;63320;50.768;6.724;2023-07-30T01:28:22;99727.63;;;16.95;83.35
74794;BME280;63320;50.768;6.724;2023-07-30T01:30:48;99736.69;;;16.92;83.63
74794;BME280;63320;50.768;6.724;2023-07-30T01:33:15;99729.91;;;16.99;80.91
74794;BME280;63320;50.768;6.724;2023-07-30T01:35:41;99728.97;;;16.89;82.71
74794;BME280;63320;50.768;6.724;2023-07-30T01:38:09;99724.81;;;16.96;82.78
74794;BME280;63320;50.768;6.724;2023-07-30T01:40:35;99726.34;;;16.78;81.79
74794;BME280;63320;50.768;6.724;2023-07-30T01:43:01;99722.50;;;16.82;81.74
74794;BME280;63320;50.768;6.724;2023-07-30T01:45:26;99726.94;;;16.81;82.25
74794;BME280;63320;50.768;6.724;2023-07-30T01:47:52;99730.03;;;16.87;81.41
74794;BME280;63320;50.768;6.724;2023-07-30T01:50:17;99726.94;;;16.70;82.86
74794;BME280;63320;50.768;6.724;2023-07-30T01:52:42;99726.69;;;16.85;83.17
74794;BME280;63320;50.768;6.724;2023-07-30T01:55:09;99724.13;;;16.94;82.87
74794;BME280;63320;50.768;6.724;2023-07-30T01:57:34;99732.78;;;16.96;82.58
74794;BME280;63320;50.768;6.724;2023-07-30T02:00:00;99734.19;;;16.79;83.35
74794;BME280;63320;50.768;6.724;2023-07-30T02:02:25;99742.94;;;16.91;83.66
74794;BME280;63320;50.768;6.724;2023-07-30T02:04:50;99743.72;;;16.82;84.32
74794;BME280;63320;50.768;6.724;2023-07-30T02:07:16;99742.94;;;16.91;83.36
74794;BME280;63320;50.768;6.724;2023-07-30T02:09:41;99737.03;;;16.99;83.14
74794;BME280;63320;50.768;6.724;2023-07-30T02:12:08;99737.69;;;16.80;83.42
74794;BME280;63320;50.768;6.724;2023-07-30T02:14:34;99731.84;;;16.97;83.58
74794;BME280;63320;50.768;6.724;2023-07-30T02:16:59;99730.28;;;16.95;83.05
74794;BME280;63320;50.768;6.724;2023-07-30T02:19:24;99739.63;;;16.78;82.90
74794;BME280;63320;50.768;6.724;2023-07-30T02:21:50;99735.63;;;16.61;82.94
74794;BME280;63320;50.768;6.724;2023-07-30T02:24:15;99734.31;;;16.67;82.28
74794;BME280;63320;50.768;6.724;2023-07-30T02:26:40;99729.47;;;16.83;82.77
74794;BME280;63320;50.768;6.724;2023-07-30T02:29:07;99726.47;;;16.65;81.96
74794;BME280;63320;50.768;6.724;2023-07-30T02:31:32;99730.56;;;16.80;82.03
74794;BME280;63320;50.768;6.724;2023-07-30T02:33:58;99720.03;;;16.90;82.49
74794;BME280;63320;50.768;6.724;2023-07-30T02:36:23;99722.44;;;16.93;81.66
74794;BME280;63320;50.768;6.724;2023-07-30T02:38:49;99723.91;;;16.86;82.13
74794;BME280;63320;50.768;6.724;2023-07-30T02:41:14;99738.25;;;16.95;82.37
74794;BME280;63320;50.768;6.724;2023-07-30T02:43:39;99738.47;;;16.92;82.18
74794;BME280;63320;50.768;6.724;2023-07-30T02:46:06;99733.66;;;16.97;81.93
74794;BME280;63320;50.768;6.724;2023-07-30T02:48:31;99728.59;;;16.94;82.00
74794;BME280;63320;50.768;6.724;2023-07-30T02:50:57;99730.44;;;16.71;82.48
74794;BME280;63320;50.768;6.724;2023-07-30T02:53:22;99725.38;;;16.68;83.00
74794;BME280;63320;50.768;6.724;2023-07-30T02:55:47;99736.13;;;16.77;83.09
74794;BME280;63320;50.768;6.724;2023-07-30T02:58:13;99736.72;;;16.81;82.84
74794;BME280;63320;50.768;6.724;2023-07-30T03:00:38;99739.25;;;16.71;82.75
74794;BME280;63320;50.768;6.724;2023-07-30T03:03:05;99738.91;;;16.65;82.87
74794;BME280;63320;50.768;6.724;2023-07-30T03:05:30;99743.22;;;16.66;82.31
74794;BME280;63320;50.768;6.724;2023-07-30T03:07:55;99749.56;;;16.42;82.32
74794;BME280;63320;50.768;6.724;2023-07-30T03:10:21;99754.00;;;16.53;82.25
74794;BME280;63320;50.768;6.724;2023-07-30T03:12:46;99750.25;;;16.78;81.24
74794;BME280;63320;50.768;6.724;2023-07-30T03:15:11;99749.06;;;16.26;82.34
74794;BME280;63320;50.768;6.724;2023-07-30T03:17:37;99755.22;;;16.49;82.37
74794;BME280;63320;50.768;6.724;2023-07-30T03:20:04;99762.06;;;16.51;82.08
74794;BME280;63320;50.768;6.724;2023-07-30T03:22:30;99759.75;;;16.69;81.73
74794;BME280;63320;50.768;6.724;2023-07-30T03:24:55;99762.31;;;16.60;82.04
74794;BME280;63320;50.768;6.724;2023-07-30T03:27:21;99769.41;;;16.70;82.12
74794;BME280;63320;50.768;6.724;2023-07-30T03:29:46;99773.88;;;16.70;81.46
74794;BME280;63320;50.768;6.724;2023-07-30T03:32:11;99771.50;;;16.67;82.38
74794;BME280;63320;50.768;6.724;2023-07-30T03:34:37;99769.00;;;16.43;82.23
74794;BME280;63320;50.768;6.724;2023-07-30T03:37:04;99773.91;;;16.36;82.20
74794;BME280;63320;50.768;6.724;2023-07-30T03:39:29;99772.63;;;16.42;82.56
74794;BME280;63320;50.768;6.724;2023-07-30T03:41:54;99777.44;;;16.48;82.56
74794;BME280;63320;50.768;6.724;2023-07-30T03:44:20;99777.53;;;16.35;82.38
74794;BME280;63320;50.768;6.724;2023-07-30T03:46:45;99771.88;;;16.06;81.49
74794;BME280;63320;50.768;6.724;2023-07-30T03:49:11;99777.44;;;16.14;80.74
74794;BME280;63320;50.768;6.724;2023-07-30T03:51:36;99786.69;;;16.31;79.71
74794;BME280;63320;50.768;6.724;2023-07-30T03:54:03;99787.69;;;16.19;80.03
74794;BME280;63320;50.768;6.724;2023-07-30T03:56:29;99793.47;;;16.01;80.24
74794;BME280;63320;50.768;6.724;2023-07-30T03:58:54;99797.31;;;16.31;80.79
74794;BME280;63320;50.768;6.724;2023-07-30T04:01:19;99799.75;;;16.23;79.87
74794;BME280;63320;50.768;6.724;2023-07-30T04:03:45;99805.41;;;16.07;79.28
74794;BME280;63320;50.768;6.724;2023-07-30T04:06:10;99804.66;;;16.05;79.60
74794;BME280;63320;50.768;6.724;2023-07-30T04:08:35;99801.19;;;16.27;78.08
74794;BME280;63320;50.768;6.724;2023-07-30T04:11:02;99795.63;;;16.30;76.96
74794;BME280;63320;50.768;6.724;2023-07-30T04:13:28;99809.38;;;16.13;78.38
74794;BME280;63320;50.768;6.724;2023-07-30T04:15:53;99806.16;;;16.31;78.36
74794;BME280;63320;50.768;6.724;2023-07-30T04:18:18;99801.91;;;16.29;77.94
74794;BME280;63320;50.768;6.724;2023-07-30T04:20:44;99800.69;;;16.11;77.60
74794;BME280;63320;50.768;6.724;2023-07-30T04:23:09;99791.78;;;16.12;78.16
74794;BME280;63320;50.768;6.724;2023-07-30T04:25:34;99803.34;;;15.99;78.67
74794;BME280;63320;50.768;6.724;2023-07-30T04:28:01;99803.09;;;16.14;79.69
74794;BME280;63320;50.768;6.724;2023-07-30T04:30:26;99804.56;;;16.07;78.84
74794;BME280;63320;50.768;6.724;2023-07-30T04:32:52;99796.59;;;16.07;79.72
74794;BME280;63320;50.768;6.724;2023-07-30T04:35:17;99793.94;;;16.07;79.80
74794;BME280;63320;50.768;6.724;2023-07-30T04:37:42;99799.63;;;16.13;80.74
74794;BME280;63320;50.768;6.724;2023-07-30T04:40:09;99796.34;;;16.21;79.75
74794;BME280;63320;50.768;6.724;2023-07-30T04:42:34;99791.25;;;15.95;80.96
74794;BME280;63320;50.768;6.724;2023-07-30T04:45:01;99802.41;;;16.12;80.81
74794;BME280;63320;50.768;6.724;2023-07-30T04:47:26;99795.50;;;16.09;81.27
74794;BME280;63320;50.768;6.724;2023-07-30T04:49:51;99795.25;;;16.01;81.60
74794;BME280;63320;50.768;6.724;2023-07-30T04:52:17;99802.81;;;15.83;82.30
74794;BME280;63320;50.768;6.724;2023-07-30T04:54:42;99803.53;;;15.85;83.01
74794;BME280;63320;50.768;6.724;2023-07-30T04:57:07;99794.59;;;15.75;83.91
74794;BME280;63320;50.768;6.724;2023-07-30T04:59:33;99792.50;;;16.14;81.96
74794;BME280;63320;50.768;6.724;2023-07-30T05:01:59;99787.66;;;15.96;82.85
74794;BME280;63320;50.768;6.724;2023-07-30T05:04:25;99786.44;;;16.00;81.79
74794;BME280;63320;50.768;6.724;2023-07-30T05:06:50;99790.69;;;16.25;82.16
74794;BME280;63320;50.768;6.724;2023-07-30T05:09:15;99794.44;;;16.34;81.71
74794;BME280;63320;50.768;6.724;2023-07-30T05:11:41;99790.44;;;16.40;81.81
74794;BME280;63320;50.768;6.724;2023-07-30T05:14:06;99796.72;;;16.39;81.18
74794;BME280;63320;50.768;6.724;2023-07-30T05:16:31;99793.25;;;16.27;82.10
74794;BME280;63320;50.768;6.724;2023-07-30T05:18:58;99806.63;;;16.37;81.91
74794;BME280;63320;50.768;6.724;2023-07-30T05:21:23;99791.16;;;16.19;80.48
74794;BME280;63320;50.768;6.724;2023-07-30T05:23:49;99794.56;;;16.33;80.97
74794;BME280;63320;50.768;6.724;2023-07-30T05:26:14;99797.09;;;16.23;81.26
74794;BME280;63320;50.768;6.724;2023-07-30T05:28:39;99803.72;;;16.17;81.33
74794;BME280;63320;50.768;6.724;2023-07-30T05:31:05;99807.31;;;16.05;82.35
74794;BME280;63320;50.768;6.724;2023-07-30T05:33:30;99803.09;;;16.02;82.90
74794;BME280;63320;50.768;6.724;2023-07-30T05:35:57;99809.13;;;15.93;82.46
74794;BME280;63320;50.768;6.724;2023-07-30T05:38:22;99800.31;;;16.04;82.74
74794;BME280;63320;50.768;6.724;2023-07-30T05:40:48;99800.72;;;16.22;81.32
74794;BME280;63320;50.768;6.724;2023-07-30T05:43:13;99802.75;;;16.29;81.34
74794;BME280;63320;50.768;6.724;2023-07-30T05:45:38;99795.41;;;16.33;81.37
74794;BME280;63320;50.768;6.724;2023-07-30T05:48:04;99803.81;;;16.16;81.80
74794;BME280;63320;50.768;6.724;2023-07-30T05:50:29;99801.03;;;16.06;81.90
74794;BME280;63320;50.768;6.724;2023-07-30T05:52:56;99806.22;;;15.96;82.15
74794;BME280;63320;50.768;6.724;2023-07-30T05:55:21;99806.25;;;16.08;81.55
74794;BME280;63320;50.768;6.724;2023-07-30T05:57:47;99808.78;;;16.20;81.28
74794;BME280;63320;50.768;6.724;2023-07-30T06:00:12;99815.53;;;16.02;82.08
74794;BME280;63320;50.768;6.724;2023-07-30T06:02:38;99810.84;;;16.17;82.24
74794;BME280;63320;50.768;6.724;2023-07-30T06:05:03;99802.50;;;16.21;81.48
74794;BME280;63320;50.768;6.724;2023-07-30T06:07:29;99810.09;;;16.03;81.94
74794;BME280;63320;50.768;6.724;2023-07-30T06:09:56;99804.44;;;16.08;81.84
74794;BME280;63320;50.768;6.724;2023-07-30T06:12:21;99802.72;;;15.96;81.76
74794;BME280;63320;50.768;6.724;2023-07-30T06:14:46;99809.72;;;15.97;82.30
74794;BME280;63320;50.768;6.724;2023-07-30T06:17:12;99813.94;;;16.11;81.52
74794;BME280;63320;50.768;6.724;2023-07-30T06:19:37;99813.25;;;16.20;81.03
74794;BME280;63320;50.768;6.724;2023-07-30T06:22:03;99815.53;;;16.36;80.47
74794;BME280;63320;50.768;6.724;2023-07-30T06:24:28;99819.03;;;16.25;81.65
74794;BME280;63320;50.768;6.724;2023-07-30T06:26:55;99814.69;;;16.13;81.63
74794;BME280;63320;50.768;6.724;2023-07-30T06:29:20;99821.91;;;15.99;82.26
74794;BME280;63320;50.768;6.724;2023-07-30T06:31:45;99830.69;;;16.00;82.77
74794;BME280;63320;50.768;6.724;2023-07-30T06:34:11;99835.19;;;16.22;81.97
74794;BME280;63320;50.768;6.724;2023-07-30T06:36:36;99838.22;;;16.17;82.55
74794;BME280;63320;50.768;6.724;2023-07-30T06:39:01;99842.88;;;16.02;82.89
74794;BME280;63320;50.768;6.724;2023-07-30T06:41:27;99846.63;;;16.11;82.21
74794;BME280;63320;50.768;6.724;2023-07-30T06:43:54;99848.41;;;15.99;83.77
74794;BME280;63320;50.768;6.724;2023-07-30T06:46:19;99855.16;;;15.92;84.82
74794;BME280;63320;50.768;6.724;2023-07-30T06:48:44;99851.34;;;16.08;83.80
74794;BME280;63320;50.768;6.724;2023-07-30T06:51:10;99860.13;;;15.97;84.22
74794;BME280;63320;50.768;6.724;2023-07-30T06:53:35;99862.44;;;16.24;83.75
74794;BME280;63320;50.768;6.724;2023-07-30T06:56:01;99859.31;;;16.41;83.64
74794;BME280;63320;50.768;6.724;2023-07-30T06:58:26;99863.91;;;16.17;83.39
74794;BME280;63320;50.768;6.724;2023-07-30T07:00:53;99872.22;;;16.46;83.41
74794;BME280;63320;50.768;6.724;2023-07-30T07:03:18;99878.16;;;16.49;83.77
74794;BME280;63320;50.768;6.724;2023-07-30T07:05:43;99875.22;;;16.41;80.72
74794;BME280;63320;50.768;6.724;2023-07-30T07:08:09;99873.44;;;16.42;80.13
74794;BME280;63320;50.768;6.724;2023-07-30T07:10:34;99888.16;;;16.35;82.55
74794;BME280;63320;50.768;6.724;2023-07-30T07:12:59;99883.31;;;16.51;81.09
74794;BME280;63320;50.768;6.724;2023-07-30T07:15:25;99883.69;;;16.35;77.82
74794;BME280;63320;50.768;6.724;2023-07-30T07:17:51;99884.38;;;16.26;77.41
74794;BME280;63320;50.768;6.724;2023-07-30T07:20:17;99875.34;;;16.28;77.94
74794;BME280;63320;50.768;6.724;2023-07-30T07:22:42;99886.25;;;16.37;77.78
74794;BME280;63320;50.768;6.724;2023-07-30T07:25:08;99876.91;;;16.31;77.52
74794;BME280;63320;50.768;6.724;2023-07-30T07:27:33;99888.06;;;16.47;77.37
74794;BME280;63320;50.768;6.724;2023-07-30T07:29:59;99894.69;;;16.42;75.66
74794;BME280;63320;50.768;6.724;2023-07-30T07:32:24;99882.84;;;16.46;76.54
74794;BME280;63320;50.768;6.724;2023-07-30T07:34:51;99895.66;;;16.52;76.76
74794;BME280;63320;50.768;6.724;2023-07-30T07:37:16;99888.91;;;16.48;76.34
74794;BME280;63320;50.768;6.724;2023-07-30T07:39:42;99885.13;;;16.62;76.49
74794;BME280;63320;50.768;6.724;2023-07-30T07:42:07;99887.19;;;16.69;76.75
74794;BME280;63320;50.768;6.724;2023-07-30T07:44:32;99884.16;;;16.51;77.10
74794;BME280;63320;50.768;6.724;2023-07-30T07:46:58;99891.31;;;16.62;77.48
74794;BME280;63320;50.768;6.724;2023-07-30T07:49:23;99895.75;;;16.50;76.90
74794;BME280;63320;50.768;6.724;2023-07-30T07:51:50;99906.13;;;16.42;77.77
74794;BME280;63320;50.768;6.724;2023-07-30T07:54:15;99893.31;;;16.36;77.73
74794;BME280;63320;50.768;6.724;2023-07-30T07:56:40;99896.72;;;16.27;78.63
74794;BME280;63320;50.768;6.724;2023-07-30T07:59:06;99891.16;;;16.30;78.26
74794;BME280;63320;50.768;6.724;2023-07-30T08:01:31;99887.66;;;16.41;79.46
74794;BME280;63320;50.768;6.724;2023-07-30T08:03:56;99883.94;;;16.43;78.46
74794;BME280;63320;50.768;6.724;2023-07-30T08:06:22;99899.50;;;16.48;77.53
74794;BME280;63320;50.768;6.724;2023-07-30T08:08:49;99891.06;;;16.54;78.25
74794;BME280;63320;50.768;6.724;2023-07-30T08:11:14;99895.53;;;16.65;77.92
74794;BME280;63320;50.768;6.724;2023-07-30T08:13:39;99897.69;;;16.71;77.35
74794;BME280;63320;50.768;6.724;2023-07-30T08:16:05;99901.94;;;16.62;77.93
74794;BME280;63320;50.768;6.724;2023-07-30T08:18:30;99907.81;;;16.66;78.06
74794;BME280;63320;50.768;6.724;2023-07-30T08:20:55;99906.31;;;16.74;78.73
74794;BME280;63320;50.768;6.724;2023-07-30T08:23:21;99903.28;;;16.79;78.33
74794;BME280;63320;50.768;6.724;2023-07-30T08:25:47;99916.44;;;16.80;77.54
74794;BME280;63320;50.768;6.724;2023-07-30T08:28:13;99910.97;;;16.71;77.13
74794;BME280;63320;50.768;6.724;2023-07-30T08:30:38;99907.88;;;16.77;76.41
74794;BME280;63320;50.768;6.724;2023-07-30T08:33:06;99903.28;;;16.79;76.69
74794;BME280;63320;50.768;6.724;2023-07-30T08:35:31;99905.94;;;16.79;76.61
74794;BME280;63320;50.768;6.724;2023-07-30T08:37:56;99902.19;;;16.81;76.88
74794;BME280;63320;50.768;6.724;2023-07-30T08:40:22;99908.72;;;16.89;75.90
74794;BME280;63320;50.768;6.724;2023-07-30T08:42:48;99893.72;;;17.10;75.21
74794;BME280;63320;50.768;6.724;2023-07-30T08:45:15;99906.38;;;17.29;73.17
74794;BME280;63320;50.768;6.724;2023-07-30T08:47:41;99910.63;;;17.64;74.04
74794;BME280;63320;50.768;6.724;2023-07-30T08:50:07;99902.22;;;17.47;72.25
74794;BME280;63320;50.768;6.724;2023-07-30T08:52:35;99900.22;;;17.28;72.57
74794;BME280;63320;50.768;6.724;2023-07-30T08:55:01;99904.03;;;17.35;72.21
74794;BME280;63320;50.768;6.724;2023-07-30T08:57:29;99932.59;;;17.66;71.68
74794;BME280;63320;50.768;6.724;2023-07-30T09:00:01;99939.88;;;17.64;69.60
74794;BME280;63320;50.768;6.724;2023-07-30T09:02:31;99915.66;;;17.67;71.12
74794;BME280;63320;50.768;6.724;2023-07-30T09:05:00;99913.47;;;17.83;71.36
74794;BME280;63320;50.768;6.724;2023-07-30T09:07:25;99915.41;;;17.70;70.33
74794;BME280;63320;50.768;6.724;2023-07-30T09:09:50;99924.75;;;17.64;69.70
74794;BME280;63320;50.768;6.724;2023-07-30T09:12:16;99925.13;;;17.59;69.67
74794;BME280;63320;50.768;6.724;2023-07-30T09:14:42;99920.88;;;17.68;68.87
74794;BME280;63320;50.768;6.724;2023-07-30T09:17:11;99940.84;;;17.63;68.58
74794;BME280;63320;50.768;6.724;2023-07-30T09:19:41;99913.97;;;17.66;68.80
74794;BME280;63320;50.768;6.724;2023-07-30T09:22:06;99928.63;;;17.60;69.08
74794;BME280;63320;50.768;6.724;2023-07-30T09:24:32;99935.00;;;17.69;69.94
74794;BME280;63320;50.768;6.724;2023-07-30T09:27:01;99938.28;;;17.61;69.64
74794;BME280;63320;50.768;6.724;2023-07-30T09:29:26;99935.38;;;17.64;69.97
74794;BME280;63320;50.768;6.724;2023-07-30T09:31:53;99934.66;;;17.73;69.00
74794;BME280;63320;50.768;6.724;2023-07-30T09:34:21;99939.72;;;17.76;68.47
74794;BME280;63320;50.768;6.724;2023-07-30T09:36:47;99942.84;;;17.81;67.82
74794;BME280;63320;50.768;6.724;2023-07-30T09:39:16;99934.47;;;17.86;67.40
74794;BME280;63320;50.768;6.724;2023-07-30T09:41:41;99936.38;;;17.95;66.94
74794;BME280;63320;50.768;6.724;2023-07-30T09:44:07;99963.50;;;17.89;64.70
74794;BME280;63320;50.768;6.724;2023-07-30T09:46:32;99938.88;;;18.08;65.56
74794;BME280;63320;50.768;6.724;2023-07-30T09:49:06;99930.69;;;18.00;64.56
74794;BME280;63320;50.768;6.724;2023-07-30T09:51:34;99937.44;;;18.25;64.46
74794;BME280;63320;50.768;6.724;2023-07-30T09:53:59;99935.47;;;18.27;63.41
74794;BME280;63320;50.768;6.724;2023-07-30T09:56:25;99933.22;;;18.22;64.27
74794;BME280;63320;50.768;6.724;2023-07-30T09:58:50;99931.50;;;18.32;63.68
74794;BME280;63320;50.768;6.724;2023-07-30T10:01:17;99932.81;;;18.27;61.35
74794;BME280;63320;50.768;6.724;2023-07-30T10:03:43;99934.50;;;18.07;62.61
74794;BME280;63320;50.768;6.724;2023-07-30T10:06:10;99927.25;;;18.09;63.45
74794;BME280;63320;50.768;6.724;2023-07-30T10:08:38;99934.91;;;18.02;62.27
74794;BME280;63320;50.768;6.724;2023-07-30T10:11:07;99940.09;;;18.04;62.08
74794;BME280;63320;50.768;6.724;2023-07-30T10:13:33;99939.66;;;18.20;62.71
74794;BME280;63320;50.768;6.724;2023-07-30T10:15:59;99939.50;;;18.42;62.35
74794;BME280;63320;50.768;6.724;2023-07-30T10:18:33;99941.66;;;18.48;61.28
74794;BME280;63320;50.768;6.724;2023-07-30T10:20:58;99945.72;;;18.52;61.42
74794;BME280;63320;50.768;6.724;2023-07-30T10:23:27;99945.03;;;18.29;62.63
74794;BME280;63320;50.768;6.724;2023-07-30T10:25:53;99947.09;;;18.26;63.93
74794;BME280;63320;50.768;6.724;2023-07-30T10:28:32;99937.03;;;18.50;65.32
74794;BME280;63320;50.768;6.724;2023-07-30T10:30:59;99937.47;;;18.76;62.28
74794;BME280;63320;50.768;6.724;2023-07-30T10:33:43;99945.47;;;18.76;60.69
74794;BME280;63320;50.768;6.724;2023-07-30T10:36:10;99935.59;;;18.88;59.09
74794;BME280;63320;50.768;6.724;2023-07-30T10:38:35;99924.34;;;19.25;58.58
74794;BME280;63320;50.768;6.724;2023-07-30T10:41:04;99935.69;;;19.17;56.58
74794;BME280;63320;50.768;6.724;2023-07-30T10:43:30;99925.13;;;19.06;56.64
74794;BME280;63320;50.768;6.724;2023-07-30T10:45:55;99925.81;;;18.98;55.33
74794;BME280;63320;50.768;6.724;2023-07-30T10:48:29;99944.41;;;19.19;57.54
74794;BME280;63320;50.768;6.724;2023-07-30T10:50:54;99925.75;;;19.29;58.03
74794;BME280;63320;50.768;6.724;2023-07-30T10:53:20;99927.00;;;19.25;56.84
74794;BME280;63320;50.768;6.724;2023-07-30T10:55:45;99925.44;;;19.22;55.87
74794;BME280;63320;50.768;6.724;2023-07-30T10:58:13;99919.75;;;19.46;55.36
74794;BME280;63320;50.768;6.724;2023-07-30T11:00:39;99929.38;;;19.68;54.02
74794;BME280;63320;50.768;6.724;2023-07-30T11:03:04;99924.00;;;19.58;53.97
74794;BME280;63320;50.768;6.724;2023-07-30T11:05:30;99913.75;;;20.02;54.29
74794;BME280;63320;50.768;6.724;2023-07-30T11:07:55;99917.56;;;20.00;51.75
74794;BME280;63320;50.768;6.724;2023-07-30T11:10:20;99917.31;;;19.83;51.70
74794;BME280;63320;50.768;6.724;2023-07-30T11:12:48;99922.47;;;20.14;50.66
74794;BME280;63320;50.768;6.724;2023-07-30T11:15:15;99933.16;;;19.95;50.56
74794;BME280;63320;50.768;6.724;2023-07-30T11:17:40;99925.59;;;19.90;51.71
74794;BME280;63320;50.768;6.724;2023-07-30T11:20:07;99924.59;;;20.01;52.67
74794;BME280;63320;50.768;6.724;2023-07-30T11:22:33;99931.19;;;19.77;53.09
74794;BME280;63320;50.768;6.724;2023-07-30T11:24:59;99927.09;;;20.22;53.19
74794;BME280;63320;50.768;6.724;2023-07-30T11:27:24;99944.84;;;20.03;52.33
74794;BME280;63320;50.768;6.724;2023-07-30T11:29:54;99957.19;;;20.04;52.65
74794;BME280;63320;50.768;6.724;2023-07-30T11:32:21;99944.69;;;20.05;53.54
74794;BME280;63320;50.768;6.724;2023-07-30T11:34:47;99943.41;;;20.09;52.58
74794;BME280;63320;50.768;6.724;2023-07-30T11:37:12;99948.03;;;20.07;52.49
74794;BME280;63320;50.768;6.724;2023-07-30T11:39:38;99952.13;;;20.01;52.60
74794;BME280;63320;50.768;6.724;2023-07-30T11:42:03;99946.50;;;20.04;53.18
74794;BME280;63320;50.768;6.724;2023-07-30T11:44:30;99943.97;;;20.12;52.91
74794;BME280;63320;50.768;6.724;2023-07-30T11:46:55;99948.28;;;20.33;52.22
74794;BME280;63320;50.768;6.724;2023-07-30T11:49:22;99964.44;;;20.41;52.44
74794;BME280;63320;50.768;6.724;2023-07-30T11:51:47;99974.28;;;20.69;52.27
74794;BME280;63320;50.768;6.724;2023-07-30T11:54:18;99958.69;;;20.46;51.79
74794;BME280;63320;50.768;6.724;2023-07-30T11:56:44;99963.84;;;20.76;51.15
74794;BME280;63320;50.768;6.724;2023-07-30T11:59:09;99963.88;;;20.66;53.33
74794;BME280;63320;50.768;6.724;2023-07-30T12:01:36;99967.84;;;20.24;53.27
74794;BME280;63320;50.768;6.724;2023-07-30T12:04:04;99980.38;;;19.94;53.45
74794;BME280;63320;50.768;6.724;2023-07-30T12:06:41;99985.13;;;20.00;53.08
74794;BME280;63320;50.768;6.724;2023-07-30T12:09:11;99963.94;;;19.89;53.43
74794;BME280;63320;50.768;6.724;2023-07-30T12:11:44;99971.91;;;20.18;50.72
74794;BME280;63320;50.768;6.724;2023-07-30T12:14:09;100033.19;;;20.29;50.22
74794;BME280;63320;50.768;6.724;2023-07-30T12:16:34;99966.16;;;20.52;50.63
74794;BME280;63320;50.768;6.724;2023-07-30T12:19:00;99977.56;;;20.54;51.69
74794;BME280;63320;50.768;6.724;2023-07-30T12:21:25;99990.56;;;20.76;51.14
74794;BME280;63320;50.768;6.724;2023-07-30T12:23:52;99978.91;;;20.67;52.57
74794;BME280;63320;50.768;6.724;2023-07-30T12:26:17;99985.78;;;20.80;51.89
74794;BME280;63320;50.768;6.724;2023-07-30T12:28:42;99963.81;;;20.86;51.41
74794;BME280;63320;50.768;6.724;2023-07-30T12:31:08;99974.91;;;20.91;52.32
74794;BME280;63320;50.768;6.724;2023-07-30T12:33:33;99986.63;;;20.80;51.75
74794;BME280;63320;50.768;6.724;2023-07-30T12:35:58;99967.34;;;20.77;52.51
74794;BME280;63320;50.768;6.724;2023-07-30T12:38:25;99974.13;;;21.08;52.42
74794;BME280;63320;50.768;6.724;2023-07-30T12:40:51;99984.13;;;20.40;50.94
74794;BME280;63320;50.768;6.724;2023-07-30T12:43:17;99979.66;;;20.31;52.42
74794;BME280;63320;50.768;6.724;2023-07-30T12:45:42;99989.47;;;20.01;53.32
74794;BME280;63320;50.768;6.724;2023-07-30T12:48:07;99996.38;;;20.04;53.29
74794;BME280;63320;50.768;6.724;2023-07-30T12:50:33;99973.88;;;19.87;53.92
74794;BME280;63320;50.768;6.724;2023-07-30T12:52:58;100010.00;;;20.20;53.77